sensor_id;sensor_type;location;lat;lon;timestamp;P1;durP1;ratioP1;P2;durP2;ratioP2
19867;SDS011;10096;51.112;6.776;2023-04-03T00:00:42;8.60;;;7.73;;
19867;SDS011;10096;51.112;6.776;2023-04-03T00:03:09;8.70;;;7.90;;
19867;SDS011;10096;51.112;6.776;2023-04-03T00:05:36;8.80;;;7.90;;
19867;SDS011;10096;51.112;6.776;2023-04-03T00:08:02;9.00;;;7.97;;
19867;SDS011;10096;51.112;6.776;2023-04-03T00:10:32;8.90;;;7.97;;
19867;SDS011;10096;51.112;6.776;2023-04-03T00:12:59;8.50;;;7.37;;
19867;SDS011;10096;51.112;6.776;2023-04-03T00:15:26;8.60;;;7.10;;
19867;SDS011;10096;51.112;6.776;2023-04-03T00:17:55;8.47;;;7.57;;
19867;SDS011;10096;51.112;6.776;2023-04-03T00:20:30;8.73;;;7.93;;
19867;SDS011;10096;51.112;6.776;2023-04-03T00:23:01;8.80;;;7.90;;
19867;SDS011;10096;51.112;6.776;2023-04-03T00:25:28;9.10;;;7.87;;
19867;SDS011;10096;51.112;6.776;2023-04-03T00:27:55;8.17;;;7.37;;
19867;SDS011;10096;51.112;6.776;2023-04-03T00:30:22;8.73;;;7.93;;
19867;SDS011;10096;51.112;6.776;2023-04-03T00:32:50;7.83;;;7.13;;
19867;SDS011;10096;51.112;6.776;2023-04-03T00:35:20;9.07;;;7.70;;
19867;SDS011;10096;51.112;6.776;2023-04-03T00:37:51;12.27;;;8.17;;
19867;SDS011;10096;51.112;6.776;2023-04-03T00:40:18;9.07;;;7.10;;
19867;SDS011;10096;51.112;6.776;2023-04-03T00:42:48;9.33;;;7.40;;
19867;SDS011;10096;51.112;6.776;2023-04-03T00:45:25;8.23;;;6.73;;
19867;SDS011;10096;51.112;6.776;2023-04-03T00:47:58;7.77;;;7.07;;
19867;SDS011;10096;51.112;6.776;2023-04-03T00:50:40;8.10;;;7.30;;
19867;SDS011;10096;51.112;6.776;2023-04-03T00:53:11;9.40;;;7.70;;
19867;SDS011;10096;51.112;6.776;2023-04-03T00:55:40;9.27;;;7.87;;
19867;SDS011;10096;51.112;6.776;2023-04-03T00:58:09;7.70;;;7.00;;
19867;SDS011;10096;51.112;6.776;2023-04-03T01:00:38;8.27;;;7.47;;
19867;SDS011;10096;51.112;6.776;2023-04-03T01:03:10;9.27;;;7.47;;
19867;SDS011;10096;51.112;6.776;2023-04-03T01:05:39;9.63;;;8.07;;
19867;SDS011;10096;51.112;6.776;2023-04-03T01:08:06;9.07;;;8.17;;
19867;SDS011;10096;51.112;6.776;2023-04-03T01:10:34;9.37;;;8.20;;
19867;SDS011;10096;51.112;6.776;2023-04-03T01:13:01;9.30;;;8.07;;
19867;SDS011;10096;51.112;6.776;2023-04-03T01:15:28;8.90;;;7.80;;
19867;SDS011;10096;51.112;6.776;2023-04-03T01:17:59;11.17;;;8.23;;
19867;SDS011;10096;51.112;6.776;2023-04-03T01:26:47;9.50;;;7.30;;
19867;SDS011;10096;51.112;6.776;2023-04-03T01:29:15;9.73;;;7.93;;
19867;SDS011;10096;51.112;6.776;2023-04-03T01:31:49;8.93;;;7.83;;
19867;SDS011;10096;51.112;6.776;2023-04-03T01:34:20;8.07;;;7.13;;
19867;SDS011;10096;51.112;6.776;2023-04-03T01:36:47;10.33;;;7.63;;
19867;SDS011;10096;51.112;6.776;2023-04-03T01:39:17;7.87;;;7.07;;
19867;SDS011;10096;51.112;6.776;2023-04-03T01:41:44;10.30;;;7.90;;
19867;SDS011;10096;51.112;6.776;2023-04-03T01:44:11;8.73;;;7.83;;
19867;SDS011;10096;51.112;6.776;2023-04-03T01:46:38;8.80;;;7.90;;
19867;SDS011;10096;51.112;6.776;2023-04-03T01:49:08;9.43;;;8.27;;
19867;SDS011;10096;51.112;6.776;2023-04-03T01:51:35;10.57;;;7.67;;
19867;SDS011;10096;51.112;6.776;2023-04-03T01:54:02;8.40;;;7.60;;
19867;SDS011;10096;51.112;6.776;2023-04-03T01:56:29;8.67;;;7.87;;
19867;SDS011;10096;51.112;6.776;2023-04-03T01:58:57;8.37;;;7.53;;
19867;SDS011;10096;51.112;6.776;2023-04-03T02:01:23;10.40;;;7.27;;
19867;SDS011;10096;51.112;6.776;2023-04-03T02:03:55;8.83;;;7.27;;
19867;SDS011;10096;51.112;6.776;2023-04-03T02:06:29;9.07;;;6.93;;
19867;SDS011;10096;51.112;6.776;2023-04-03T02:09:00;8.03;;;7.23;;
19867;SDS011;10096;51.112;6.776;2023-04-03T02:11:27;8.13;;;7.13;;
19867;SDS011;10096;51.112;6.776;2023-04-03T02:13:56;10.40;;;6.90;;
19867;SDS011;10096;51.112;6.776;2023-04-03T02:16:23;7.20;;;6.47;;
19867;SDS011;10096;51.112;6.776;2023-04-03T02:18:53;7.90;;;7.10;;
19867;SDS011;10096;51.112;6.776;2023-04-03T02:21:21;7.87;;;6.23;;
19867;SDS011;10096;51.112;6.776;2023-04-03T02:23:53;9.47;;;6.53;;
19867;SDS011;10096;51.112;6.776;2023-04-03T02:26:22;7.27;;;6.57;;
19867;SDS011;10096;51.112;6.776;2023-04-03T02:28:51;10.73;;;6.90;;
19867;SDS011;10096;51.112;6.776;2023-04-03T02:31:21;9.57;;;6.97;;
19867;SDS011;10096;51.112;6.776;2023-04-03T02:33:49;9.23;;;6.73;;
19867;SDS011;10096;51.112;6.776;2023-04-03T02:36:16;7.53;;;6.60;;
19867;SDS011;10096;51.112;6.776;2023-04-03T02:38:43;7.73;;;6.43;;
19867;SDS011;10096;51.112;6.776;2023-04-03T02:41:12;9.87;;;6.93;;
19867;SDS011;10096;51.112;6.776;2023-04-03T02:43:40;7.53;;;6.70;;
19867;SDS011;10096;51.112;6.776;2023-04-03T02:46:07;9.40;;;6.47;;
19867;SDS011;10096;51.112;6.776;2023-04-03T02:48:34;9.50;;;6.67;;
19867;SDS011;10096;51.112;6.776;2023-04-03T02:51:02;9.57;;;6.50;;
19867;SDS011;10096;51.112;6.776;2023-04-03T02:53:30;7.33;;;6.07;;
19867;SDS011;10096;51.112;6.776;2023-04-03T02:56:01;7.27;;;5.73;;
19867;SDS011;10096;51.112;6.776;2023-04-03T02:58:30;7.23;;;5.47;;
19867;SDS011;10096;51.112;6.776;2023-04-03T03:00:57;7.83;;;5.60;;
19867;SDS011;10096;51.112;6.776;2023-04-03T03:03:24;8.70;;;6.10;;
19867;SDS011;10096;51.112;6.776;2023-04-03T03:06:00;7.03;;;5.60;;
19867;SDS011;10096;51.112;6.776;2023-04-03T03:08:28;7.30;;;5.60;;
19867;SDS011;10096;51.112;6.776;2023-04-03T03:10:55;6.70;;;5.43;;
19867;SDS011;10096;51.112;6.776;2023-04-03T03:13:22;5.93;;;5.33;;
19867;SDS011;10096;51.112;6.776;2023-04-03T03:15:51;6.87;;;5.90;;
19867;SDS011;10096;51.112;6.776;2023-04-03T03:18:21;6.47;;;5.63;;
19867;SDS011;10096;51.112;6.776;2023-04-03T03:20:50;6.00;;;5.40;;
19867;SDS011;10096;51.112;6.776;2023-04-03T03:23:21;6.57;;;5.30;;
19867;SDS011;10096;51.112;6.776;2023-04-03T03:25:54;9.13;;;5.60;;
19867;SDS011;10096;51.112;6.776;2023-04-03T03:28:22;7.07;;;5.10;;
19867;SDS011;10096;51.112;6.776;2023-04-03T03:30:53;7.70;;;5.90;;
19867;SDS011;10096;51.112;6.776;2023-04-03T03:33:20;6.70;;;5.10;;
19867;SDS011;10096;51.112;6.776;2023-04-03T03:35:48;8.53;;;5.00;;
19867;SDS011;10096;51.112;6.776;2023-04-03T03:38:15;7.83;;;5.63;;
19867;SDS011;10096;51.112;6.776;2023-04-03T03:40:42;7.37;;;4.87;;
19867;SDS011;10096;51.112;6.776;2023-04-03T03:43:09;6.10;;;5.00;;
19867;SDS011;10096;51.112;6.776;2023-04-03T03:45:36;6.10;;;5.50;;
19867;SDS011;10096;51.112;6.776;2023-04-03T03:48:05;6.63;;;5.40;;
19867;SDS011;10096;51.112;6.776;2023-04-03T03:50:36;6.83;;;5.27;;
19867;SDS011;10096;51.112;6.776;2023-04-03T03:53:12;7.03;;;6.30;;
19867;SDS011;10096;51.112;6.776;2023-04-03T03:55:43;6.07;;;5.47;;
19867;SDS011;10096;51.112;6.776;2023-04-03T03:58:10;7.67;;;5.40;;
19867;SDS011;10096;51.112;6.776;2023-04-03T04:00:39;4.90;;;4.40;;
19867;SDS011;10096;51.112;6.776;2023-04-03T04:03:07;6.13;;;5.40;;
19867;SDS011;10096;51.112;6.776;2023-04-03T04:05:37;6.03;;;5.27;;
19867;SDS011;10096;51.112;6.776;2023-04-03T04:08:04;7.23;;;4.97;;
19867;SDS011;10096;51.112;6.776;2023-04-03T04:10:31;6.27;;;5.67;;
19867;SDS011;10096;51.112;6.776;2023-04-03T04:13:00;6.57;;;5.80;;
19867;SDS011;10096;51.112;6.776;2023-04-03T04:15:27;5.70;;;5.10;;
19867;SDS011;10096;51.112;6.776;2023-04-03T04:17:55;6.70;;;5.23;;
19867;SDS011;10096;51.112;6.776;2023-04-03T04:20:27;8.90;;;5.40;;
19867;SDS011;10096;51.112;6.776;2023-04-03T04:22:54;6.33;;;5.47;;
19867;SDS011;10096;51.112;6.776;2023-04-03T04:25:21;7.70;;;5.60;;
19867;SDS011;10096;51.112;6.776;2023-04-03T04:27:48;7.77;;;5.27;;
19867;SDS011;10096;51.112;6.776;2023-04-03T04:30:17;6.77;;;5.23;;
19867;SDS011;10096;51.112;6.776;2023-04-03T04:32:45;7.20;;;5.10;;
19867;SDS011;10096;51.112;6.776;2023-04-03T04:35:12;6.23;;;5.43;;
19867;SDS011;10096;51.112;6.776;2023-04-03T04:37:41;9.57;;;5.37;;
19867;SDS011;10096;51.112;6.776;2023-04-03T04:40:09;7.00;;;5.60;;
19867;SDS011;10096;51.112;6.776;2023-04-03T04:42:36;5.90;;;4.93;;
19867;SDS011;10096;51.112;6.776;2023-04-03T04:45:07;8.03;;;5.53;;
19867;SDS011;10096;51.112;6.776;2023-04-03T04:47:35;8.50;;;5.47;;
19867;SDS011;10096;51.112;6.776;2023-04-03T04:50:02;6.97;;;5.60;;
19867;SDS011;10096;51.112;6.776;2023-04-03T04:52:30;6.87;;;5.33;;
19867;SDS011;10096;51.112;6.776;2023-04-03T04:54:58;7.20;;;5.23;;
19867;SDS011;10096;51.112;6.776;2023-04-03T04:57:27;9.47;;;5.50;;
19867;SDS011;10096;51.112;6.776;2023-04-03T04:59:54;6.57;;;5.13;;
19867;SDS011;10096;51.112;6.776;2023-04-03T05:02:23;6.50;;;4.97;;
19867;SDS011;10096;51.112;6.776;2023-04-03T05:04:52;7.00;;;5.00;;
19867;SDS011;10096;51.112;6.776;2023-04-03T05:07:19;5.53;;;4.57;;
19867;SDS011;10096;51.112;6.776;2023-04-03T05:09:46;7.07;;;5.50;;
19867;SDS011;10096;51.112;6.776;2023-04-03T05:12:28;6.67;;;5.17;;
19867;SDS011;10096;51.112;6.776;2023-04-03T05:14:55;7.13;;;6.13;;
19867;SDS011;10096;51.112;6.776;2023-04-03T05:17:22;8.87;;;5.43;;
19867;SDS011;10096;51.112;6.776;2023-04-03T05:19:50;5.23;;;4.73;;
19867;SDS011;10096;51.112;6.776;2023-04-03T05:22:28;6.27;;;5.00;;
19867;SDS011;10096;51.112;6.776;2023-04-03T05:24:55;6.43;;;4.87;;
19867;SDS011;10096;51.112;6.776;2023-04-03T05:27:24;9.70;;;5.27;;
19867;SDS011;10096;51.112;6.776;2023-04-03T05:29:53;5.37;;;4.73;;
19867;SDS011;10096;51.112;6.776;2023-04-03T05:32:20;4.97;;;4.27;;
19867;SDS011;10096;51.112;6.776;2023-04-03T05:34:47;7.70;;;4.67;;
19867;SDS011;10096;51.112;6.776;2023-04-03T05:37:14;6.83;;;5.20;;
19867;SDS011;10096;51.112;6.776;2023-04-03T05:39:42;5.03;;;4.53;;
19867;SDS011;10096;51.112;6.776;2023-04-03T05:42:09;6.37;;;4.80;;
19867;SDS011;10096;51.112;6.776;2023-04-03T05:44:43;6.90;;;4.80;;
19867;SDS011;10096;51.112;6.776;2023-04-03T05:47:12;8.50;;;5.67;;
19867;SDS011;10096;51.112;6.776;2023-04-03T05:49:39;6.17;;;5.37;;
19867;SDS011;10096;51.112;6.776;2023-04-03T05:52:08;7.40;;;5.27;;
19867;SDS011;10096;51.112;6.776;2023-04-03T05:54:43;9.30;;;4.50;;
19867;SDS011;10096;51.112;6.776;2023-04-03T05:57:13;4.60;;;4.20;;
19867;SDS011;10096;51.112;6.776;2023-04-03T05:59:42;8.03;;;5.07;;
19867;SDS011;10096;51.112;6.776;2023-04-03T06:02:11;6.47;;;4.90;;
19867;SDS011;10096;51.112;6.776;2023-04-03T06:04:40;8.43;;;5.15;;
19867;SDS011;10096;51.112;6.776;2023-04-03T06:07:09;7.32;;;4.60;;
19867;SDS011;10096;51.112;6.776;2023-04-03T06:09:38;7.05;;;4.95;;
19867;SDS011;10096;51.112;6.776;2023-04-03T06:12:05;5.72;;;3.90;;
19867;SDS011;10096;51.112;6.776;2023-04-03T06:14:33;7.38;;;4.38;;
19867;SDS011;10096;51.112;6.776;2023-04-03T06:17:03;5.03;;;4.00;;
19867;SDS011;10096;51.112;6.776;2023-04-03T06:19:32;4.80;;;3.80;;
19867;SDS011;10096;51.112;6.776;2023-04-03T06:21:59;7.50;;;4.88;;
19867;SDS011;10096;51.112;6.776;2023-04-03T06:24:26;4.80;;;3.58;;
19867;SDS011;10096;51.112;6.776;2023-04-03T06:26:53;5.50;;;3.90;;
19867;SDS011;10096;51.112;6.776;2023-04-03T06:29:20;5.30;;;4.03;;
19867;SDS011;10096;51.112;6.776;2023-04-03T06:31:48;9.30;;;4.03;;
19867;SDS011;10096;51.112;6.776;2023-04-03T06:34:17;4.85;;;3.95;;
19867;SDS011;10096;51.112;6.776;2023-04-03T06:36:45;4.97;;;4.25;;
19867;SDS011;10096;51.112;6.776;2023-04-03T06:39:14;4.40;;;4.00;;
19867;SDS011;10096;51.112;6.776;2023-04-03T06:41:42;5.90;;;3.53;;
19867;SDS011;10096;51.112;6.776;2023-04-03T06:44:11;5.75;;;3.40;;
19867;SDS011;10096;51.112;6.776;2023-04-03T06:46:41;7.13;;;3.83;;
19867;SDS011;10096;51.112;6.776;2023-04-03T06:49:14;5.10;;;3.60;;
19867;SDS011;10096;51.112;6.776;2023-04-03T06:51:42;7.43;;;3.75;;
19867;SDS011;10096;51.112;6.776;2023-04-03T06:54:10;4.07;;;3.55;;
19867;SDS011;10096;51.112;6.776;2023-04-03T06:56:38;5.55;;;3.65;;
19867;SDS011;10096;51.112;6.776;2023-04-03T06:59:05;4.88;;;3.90;;
19867;SDS011;10096;51.112;6.776;2023-04-03T07:01:33;5.63;;;3.55;;
19867;SDS011;10096;51.112;6.776;2023-04-03T07:04:03;5.05;;;3.28;;
19867;SDS011;10096;51.112;6.776;2023-04-03T07:06:32;6.45;;;3.42;;
19867;SDS011;10096;51.112;6.776;2023-04-03T07:09:13;4.80;;;3.60;;
19867;SDS011;10096;51.112;6.776;2023-04-03T07:11:40;3.95;;;2.97;;
19867;SDS011;10096;51.112;6.776;2023-04-03T07:14:07;6.45;;;3.90;;
19867;SDS011;10096;51.112;6.776;2023-04-03T07:16:36;4.63;;;3.60;;
19867;SDS011;10096;51.112;6.776;2023-04-03T07:19:05;6.68;;;3.53;;
19867;SDS011;10096;51.112;6.776;2023-04-03T07:21:36;3.67;;;3.15;;
19867;SDS011;10096;51.112;6.776;2023-04-03T07:24:13;6.47;;;3.30;;
19867;SDS011;10096;51.112;6.776;2023-04-03T07:26:40;9.40;;;4.47;;
19867;SDS011;10096;51.112;6.776;2023-04-03T07:29:07;4.90;;;3.25;;
19867;SDS011;10096;51.112;6.776;2023-04-03T07:31:40;3.83;;;3.15;;
19867;SDS011;10096;51.112;6.776;2023-04-03T07:34:07;5.35;;;3.50;;
19867;SDS011;10096;51.112;6.776;2023-04-03T07:36:36;4.03;;;3.28;;
19867;SDS011;10096;51.112;6.776;2023-04-03T07:39:03;4.57;;;3.53;;
19867;SDS011;10096;51.112;6.776;2023-04-03T07:41:33;3.67;;;3.17;;
19867;SDS011;10096;51.112;6.776;2023-04-03T07:44:06;4.50;;;3.20;;
19867;SDS011;10096;51.112;6.776;2023-04-03T07:46:34;6.32;;;3.15;;
19867;SDS011;10096;51.112;6.776;2023-04-03T07:49:01;4.40;;;3.15;;
19867;SDS011;10096;51.112;6.776;2023-04-03T07:51:31;4.75;;;3.20;;
19867;SDS011;10096;51.112;6.776;2023-04-03T07:54:04;4.80;;;2.72;;
19867;SDS011;10096;51.112;6.776;2023-04-03T07:56:44;4.63;;;3.03;;
19867;SDS011;10096;51.112;6.776;2023-04-03T07:59:11;5.47;;;3.47;;
19867;SDS011;10096;51.112;6.776;2023-04-03T08:01:40;6.10;;;3.53;;
19867;SDS011;10096;51.112;6.776;2023-04-03T08:04:09;5.90;;;3.10;;
19867;SDS011;10096;51.112;6.776;2023-04-03T08:06:36;4.72;;;3.42;;
19867;SDS011;10096;51.112;6.776;2023-04-03T08:09:03;3.30;;;3.00;;
19867;SDS011;10096;51.112;6.776;2023-04-03T08:11:31;4.50;;;2.78;;
19867;SDS011;10096;51.112;6.776;2023-04-03T08:14:01;5.38;;;3.47;;
19867;SDS011;10096;51.112;6.776;2023-04-03T08:16:28;6.25;;;3.00;;
19867;SDS011;10096;51.112;6.776;2023-04-03T08:19:03;4.47;;;2.97;;
19867;SDS011;10096;51.112;6.776;2023-04-03T08:21:31;2.42;;;2.22;;
19867;SDS011;10096;51.112;6.776;2023-04-03T08:23:58;3.88;;;2.75;;
19867;SDS011;10096;51.112;6.776;2023-04-03T08:26:25;3.35;;;2.67;;
19867;SDS011;10096;51.112;6.776;2023-04-03T08:28:56;3.38;;;2.63;;
19867;SDS011;10096;51.112;6.776;2023-04-03T08:31:26;3.65;;;2.58;;
19867;SDS011;10096;51.112;6.776;2023-04-03T08:34:02;3.38;;;2.08;;
19867;SDS011;10096;51.112;6.776;2023-04-03T08:36:30;3.95;;;2.05;;
19867;SDS011;10096;51.112;6.776;2023-04-03T08:38:59;3.25;;;2.70;;
19867;SDS011;10096;51.112;6.776;2023-04-03T08:41:29;4.28;;;2.33;;
19867;SDS011;10096;51.112;6.776;2023-04-03T08:44:04;2.65;;;2.08;;
19867;SDS011;10096;51.112;6.776;2023-04-03T08:46:46;2.38;;;2.15;;
19867;SDS011;10096;51.112;6.776;2023-04-03T08:49:22;3.50;;;2.58;;
19867;SDS011;10096;51.112;6.776;2023-04-03T08:51:53;3.00;;;2.10;;
19867;SDS011;10096;51.112;6.776;2023-04-03T08:54:27;4.15;;;2.00;;
19867;SDS011;10096;51.112;6.776;2023-04-03T08:56:57;2.43;;;1.90;;
19867;SDS011;10096;51.112;6.776;2023-04-03T08:59:27;4.33;;;2.37;;
19867;SDS011;10096;51.112;6.776;2023-04-03T09:01:59;3.20;;;1.90;;
19867;SDS011;10096;51.112;6.776;2023-04-03T09:04:34;2.53;;;1.92;;
19867;SDS011;10096;51.112;6.776;2023-04-03T09:07:04;3.30;;;2.83;;
19867;SDS011;10096;51.112;6.776;2023-04-03T09:09:41;3.23;;;2.20;;
19867;SDS011;10096;51.112;6.776;2023-04-03T09:12:13;2.60;;;2.43;;
19867;SDS011;10096;51.112;6.776;2023-04-03T09:14:47;3.40;;;2.80;;
19867;SDS011;10096;51.112;6.776;2023-04-03T09:17:31;2.97;;;2.03;;
19867;SDS011;10096;51.112;6.776;2023-04-03T09:20:11;3.47;;;2.17;;
19867;SDS011;10096;51.112;6.776;2023-04-03T09:22:47;3.57;;;3.00;;
19867;SDS011;10096;51.112;6.776;2023-04-03T09:25:16;3.23;;;2.00;;
19867;SDS011;10096;51.112;6.776;2023-04-03T09:27:46;2.73;;;2.33;;
19867;SDS011;10096;51.112;6.776;2023-04-03T09:30:13;2.27;;;1.97;;
19867;SDS011;10096;51.112;6.776;2023-04-03T09:32:45;4.00;;;2.33;;
19867;SDS011;10096;51.112;6.776;2023-04-03T09:35:40;2.10;;;1.67;;
19867;SDS011;10096;51.112;6.776;2023-04-03T09:38:15;3.60;;;1.90;;
19867;SDS011;10096;51.112;6.776;2023-04-03T09:41:02;2.90;;;2.30;;
19867;SDS011;10096;51.112;6.776;2023-04-03T09:43:31;2.20;;;1.80;;
19867;SDS011;10096;51.112;6.776;2023-04-03T09:48:52;3.43;;;2.03;;
19867;SDS011;10096;51.112;6.776;2023-04-03T09:51:26;2.00;;;1.80;;
19867;SDS011;10096;51.112;6.776;2023-04-03T09:53:54;2.30;;;2.10;;
19867;SDS011;10096;51.112;6.776;2023-04-03T09:56:23;3.73;;;2.20;;
19867;SDS011;10096;51.112;6.776;2023-04-03T09:58:52;3.17;;;2.27;;
19867;SDS011;10096;51.112;6.776;2023-04-03T10:01:41;2.67;;;2.00;;
19867;SDS011;10096;51.112;6.776;2023-04-03T10:04:11;2.33;;;2.13;;
19867;SDS011;10096;51.112;6.776;2023-04-03T10:06:42;4.18;;;2.55;;
19867;SDS011;10096;51.112;6.776;2023-04-03T10:09:17;2.67;;;2.43;;
19867;SDS011;10096;51.112;6.776;2023-04-03T10:12:01;3.30;;;2.07;;
19867;SDS011;10096;51.112;6.776;2023-04-03T10:14:31;4.43;;;2.47;;
19867;SDS011;10096;51.112;6.776;2023-04-03T10:17:21;3.17;;;2.03;;
19867;SDS011;10096;51.112;6.776;2023-04-03T10:19:55;3.73;;;2.30;;
19867;SDS011;10096;51.112;6.776;2023-04-03T10:22:30;5.17;;;2.40;;
19867;SDS011;10096;51.112;6.776;2023-04-03T10:25:10;2.73;;;2.00;;
19867;SDS011;10096;51.112;6.776;2023-04-03T10:27:44;2.87;;;2.57;;
19867;SDS011;10096;51.112;6.776;2023-04-03T10:30:32;3.50;;;2.27;;
19867;SDS011;10096;51.112;6.776;2023-04-03T10:33:11;3.63;;;2.50;;
19867;SDS011;10096;51.112;6.776;2023-04-03T10:35:50;2.40;;;1.97;;
19867;SDS011;10096;51.112;6.776;2023-04-03T10:38:33;2.40;;;2.20;;
19867;SDS011;10096;51.112;6.776;2023-04-03T10:41:11;3.83;;;1.93;;
19867;SDS011;10096;51.112;6.776;2023-04-03T10:43:44;2.33;;;2.10;;
19867;SDS011;10096;51.112;6.776;2023-04-03T10:46:18;3.13;;;2.20;;
19867;SDS011;10096;51.112;6.776;2023-04-03T10:48:53;2.50;;;2.17;;
19867;SDS011;10096;51.112;6.776;2023-04-03T10:51:34;3.10;;;2.27;;
19867;SDS011;10096;51.112;6.776;2023-04-03T10:54:11;3.43;;;1.87;;
19867;SDS011;10096;51.112;6.776;2023-04-03T10:56:50;1.90;;;1.80;;
19867;SDS011;10096;51.112;6.776;2023-04-03T10:59:23;3.73;;;2.17;;
19867;SDS011;10096;51.112;6.776;2023-04-03T11:01:53;3.17;;;2.50;;
19867;SDS011;10096;51.112;6.776;2023-04-03T11:04:44;3.17;;;2.10;;
19867;SDS011;10096;51.112;6.776;2023-04-03T11:07:22;3.50;;;2.27;;
19867;SDS011;10096;51.112;6.776;2023-04-03T11:09:54;2.60;;;2.37;;
19867;SDS011;10096;51.112;6.776;2023-04-03T11:12:24;3.77;;;2.10;;
19867;SDS011;10096;51.112;6.776;2023-04-03T11:14:55;2.33;;;1.97;;
19867;SDS011;10096;51.112;6.776;2023-04-03T11:17:31;3.07;;;1.90;;
19867;SDS011;10096;51.112;6.776;2023-04-03T11:20:04;3.20;;;2.00;;
19867;SDS011;10096;51.112;6.776;2023-04-03T11:22:41;2.20;;;1.60;;
19867;SDS011;10096;51.112;6.776;2023-04-03T11:25:17;1.70;;;1.60;;
19867;SDS011;10096;51.112;6.776;2023-04-03T11:27:48;2.25;;;2.15;;
19867;SDS011;10096;51.112;6.776;2023-04-03T11:30:19;2.20;;;2.00;;
19867;SDS011;10096;51.112;6.776;2023-04-03T11:33:07;2.93;;;2.20;;
19867;SDS011;10096;51.112;6.776;2023-04-03T11:35:45;3.33;;;1.93;;
19867;SDS011;10096;51.112;6.776;2023-04-03T11:38:17;3.47;;;1.80;;
19867;SDS011;10096;51.112;6.776;2023-04-03T11:40:49;3.50;;;2.80;;
19867;SDS011;10096;51.112;6.776;2023-04-03T11:43:20;2.60;;;2.30;;
19867;SDS011;10096;51.112;6.776;2023-04-03T11:45:51;3.10;;;2.10;;
19867;SDS011;10096;51.112;6.776;2023-04-03T12:12:55;2.65;;;1.98;;
19867;SDS011;10096;51.112;6.776;2023-04-03T12:18:40;2.83;;;2.37;;
19867;SDS011;10096;51.112;6.776;2023-04-03T12:21:12;2.30;;;2.00;;
19867;SDS011;10096;51.112;6.776;2023-04-03T12:24:02;3.57;;;1.83;;
19867;SDS011;10096;51.112;6.776;2023-04-03T12:26:50;2.67;;;1.60;;
19867;SDS011;10096;51.112;6.776;2023-04-03T12:29:29;2.97;;;1.75;;
19867;SDS011;10096;51.112;6.776;2023-04-03T12:32:06;2.47;;;1.97;;
19867;SDS011;10096;51.112;6.776;2023-04-03T12:34:45;3.00;;;2.03;;
19867;SDS011;10096;51.112;6.776;2023-04-03T12:37:29;2.63;;;2.15;;
19867;SDS011;10096;51.112;6.776;2023-04-03T12:40:21;2.25;;;1.63;;
19867;SDS011;10096;51.112;6.776;2023-04-03T12:43:02;2.08;;;1.73;;
19867;SDS011;10096;51.112;6.776;2023-04-03T12:45:43;1.90;;;1.63;;
19867;SDS011;10096;51.112;6.776;2023-04-03T12:48:21;2.43;;;1.63;;
19867;SDS011;10096;51.112;6.776;2023-04-03T12:50:51;2.50;;;1.57;;
19867;SDS011;10096;51.112;6.776;2023-04-03T12:53:21;1.90;;;1.80;;
19867;SDS011;10096;51.112;6.776;2023-04-03T12:55:54;3.10;;;2.13;;
19867;SDS011;10096;51.112;6.776;2023-04-03T12:58:23;2.63;;;2.20;;
19867;SDS011;10096;51.112;6.776;2023-04-03T13:03:54;1.77;;;1.40;;
19867;SDS011;10096;51.112;6.776;2023-04-03T13:06:39;2.08;;;1.88;;
19867;SDS011;10096;51.112;6.776;2023-04-03T13:09:17;1.87;;;1.50;;
19867;SDS011;10096;51.112;6.776;2023-04-03T13:11:48;2.22;;;1.70;;
19867;SDS011;10096;51.112;6.776;2023-04-03T13:14:17;1.80;;;1.70;;
19867;SDS011;10096;51.112;6.776;2023-04-03T13:16:54;2.95;;;1.98;;
19867;SDS011;10096;51.112;6.776;2023-04-03T13:19:37;3.75;;;2.17;;
19867;SDS011;10096;51.112;6.776;2023-04-03T13:22:08;2.75;;;1.67;;
19867;SDS011;10096;51.112;6.776;2023-04-03T13:24:47;3.53;;;2.30;;
19867;SDS011;10096;51.112;6.776;2023-04-03T13:27:16;2.30;;;1.90;;
19867;SDS011;10096;51.112;6.776;2023-04-03T13:29:48;2.88;;;1.80;;
19867;SDS011;10096;51.112;6.776;2023-04-03T13:32:18;2.87;;;2.20;;
19867;SDS011;10096;51.112;6.776;2023-04-03T13:34:48;1.73;;;1.63;;
19867;SDS011;10096;51.112;6.776;2023-04-03T13:37:19;2.10;;;1.83;;
19867;SDS011;10096;51.112;6.776;2023-04-03T13:39:57;3.30;;;2.20;;
19867;SDS011;10096;51.112;6.776;2023-04-03T13:42:30;1.85;;;1.60;;
19867;SDS011;10096;51.112;6.776;2023-04-03T13:47:54;2.10;;;2.00;;
19867;SDS011;10096;51.112;6.776;2023-04-03T13:50:48;2.85;;;1.85;;
19867;SDS011;10096;51.112;6.776;2023-04-03T13:53:20;2.67;;;2.00;;
19867;SDS011;10096;51.112;6.776;2023-04-03T13:55:56;2.05;;;1.95;;
19867;SDS011;10096;51.112;6.776;2023-04-03T13:58:33;2.85;;;1.55;;
19867;SDS011;10096;51.112;6.776;2023-04-03T14:01:06;1.88;;;1.70;;
19867;SDS011;10096;51.112;6.776;2023-04-03T14:03:40;4.50;;;1.85;;
19867;SDS011;10096;51.112;6.776;2023-04-03T14:06:12;2.00;;;1.60;;
19867;SDS011;10096;51.112;6.776;2023-04-03T14:08:41;2.08;;;1.85;;
19867;SDS011;10096;51.112;6.776;2023-04-03T14:11:22;3.37;;;1.63;;
19867;SDS011;10096;51.112;6.776;2023-04-03T14:13:52;2.35;;;2.15;;
19867;SDS011;10096;51.112;6.776;2023-04-03T14:16:20;3.28;;;1.73;;
19867;SDS011;10096;51.112;6.776;2023-04-03T14:18:49;2.40;;;2.20;;
19867;SDS011;10096;51.112;6.776;2023-04-03T14:21:20;3.33;;;2.33;;
19867;SDS011;10096;51.112;6.776;2023-04-03T14:23:47;2.13;;;1.60;;
19867;SDS011;10096;51.112;6.776;2023-04-03T14:28:57;2.90;;;2.57;;
19867;SDS011;10096;51.112;6.776;2023-04-03T14:31:26;2.83;;;2.63;;
19867;SDS011;10096;51.112;6.776;2023-04-03T14:33:55;3.77;;;2.70;;
19867;SDS011;10096;51.112;6.776;2023-04-03T14:36:24;3.17;;;2.45;;
19867;SDS011;10096;51.112;6.776;2023-04-03T14:38:53;3.85;;;2.22;;
19867;SDS011;10096;51.112;6.776;2023-04-03T14:41:22;3.35;;;2.40;;
19867;SDS011;10096;51.112;6.776;2023-04-03T14:43:52;2.83;;;2.35;;
19867;SDS011;10096;51.112;6.776;2023-04-03T14:46:20;3.13;;;2.22;;
19867;SDS011;10096;51.112;6.776;2023-04-03T14:48:50;3.03;;;1.90;;
19867;SDS011;10096;51.112;6.776;2023-04-03T14:51:17;3.60;;;2.83;;
19867;SDS011;10096;51.112;6.776;2023-04-03T14:53:46;2.95;;;2.45;;
19867;SDS011;10096;51.112;6.776;2023-04-03T14:56:15;2.00;;;1.75;;
19867;SDS011;10096;51.112;6.776;2023-04-03T14:58:47;4.13;;;2.17;;
19867;SDS011;10096;51.112;6.776;2023-04-03T15:01:16;2.60;;;2.22;;
19867;SDS011;10096;51.112;6.776;2023-04-03T15:03:43;5.68;;;2.45;;
19867;SDS011;10096;51.112;6.776;2023-04-03T15:06:10;2.28;;;2.08;;
19867;SDS011;10096;51.112;6.776;2023-04-03T15:08:39;3.95;;;2.88;;
19867;SDS011;10096;51.112;6.776;2023-04-03T15:11:09;3.42;;;2.45;;
19867;SDS011;10096;51.112;6.776;2023-04-03T15:13:36;2.22;;;2.03;;
19867;SDS011;10096;51.112;6.776;2023-04-03T15:16:05;2.53;;;2.00;;
19867;SDS011;10096;51.112;6.776;2023-04-03T15:18:37;3.70;;;2.10;;
19867;SDS011;10096;51.112;6.776;2023-04-03T15:21:04;2.80;;;2.58;;
19867;SDS011;10096;51.112;6.776;2023-04-03T15:23:32;3.17;;;2.45;;
19867;SDS011;10096;51.112;6.776;2023-04-03T15:25:59;2.95;;;2.22;;
19867;SDS011;10096;51.112;6.776;2023-04-03T15:28:28;2.58;;;2.38;;
19867;SDS011;10096;51.112;6.776;2023-04-03T15:30:56;2.38;;;2.17;;
19867;SDS011;10096;51.112;6.776;2023-04-03T15:33:25;4.97;;;2.47;;
19867;SDS011;10096;51.112;6.776;2023-04-03T15:35:54;3.75;;;2.25;;
19867;SDS011;10096;51.112;6.776;2023-04-03T15:38:21;4.15;;;2.60;;
19867;SDS011;10096;51.112;6.776;2023-04-03T15:40:48;2.75;;;2.25;;
19867;SDS011;10096;51.112;6.776;2023-04-03T15:43:15;3.90;;;2.20;;
19867;SDS011;10096;51.112;6.776;2023-04-03T15:45:44;3.42;;;2.30;;
19867;SDS011;10096;51.112;6.776;2023-04-03T15:48:14;2.97;;;2.25;;
19867;SDS011;10096;51.112;6.776;2023-04-03T15:50:41;5.45;;;2.60;;
19867;SDS011;10096;51.112;6.776;2023-04-03T15:53:08;3.30;;;2.03;;
19867;SDS011;10096;51.112;6.776;2023-04-03T15:55:36;2.30;;;2.10;;